sensor_id;sensor_type;location;lat;lon;timestamp;temperature;humidity
19586;DHT22;9939;49.246;9.106;2024-02-28T00:01:07;5.20;99.90
19586;DHT22;9939;49.246;9.106;2024-02-28T00:03:34;5.00;99.90
19586;DHT22;9939;49.246;9.106;2024-02-28T00:06:01;5.00;99.90
19586;DHT22;9939;49.246;9.106;2024-02-28T00:08:28;4.90;99.90
19586;DHT22;9939;49.246;9.106;2024-02-28T00:10:55;4.80;99.90
19586;DHT22;9939;49.246;9.106;2024-02-28T00:13:22;4.70;99.90
19586;DHT22;9939;49.246;9.106;2024-02-28T00:15:50;4.70;99.90
19586;DHT22;9939;49.246;9.106;2024-02-28T00:18:17;4.70;99.90
19586;DHT22;9939;49.246;9.106;2024-02-28T00:20:45;4.70;99.90
19586;DHT22;9939;49.246;9.106;2024-02-28T00:23:11;4.70;99.90
19586;DHT22;9939;49.246;9.106;2024-02-28T00:25:38;4.80;99.90
19586;DHT22;9939;49.246;9.106;2024-02-28T00:28:05;4.80;99.90
19586;DHT22;9939;49.246;9.106;2024-02-28T00:30:32;5.00;99.90
19586;DHT22;9939;49.246;9.106;2024-02-28T00:33:00;5.30;99.90
19586;DHT22;9939;49.246;9.106;2024-02-28T00:35:28;5.40;99.90
19586;DHT22;9939;49.246;9.106;2024-02-28T00:37:55;5.50;99.90
19586;DHT22;9939;49.246;9.106;2024-02-28T00:40:22;5.60;99.90
19586;DHT22;9939;49.246;9.106;2024-02-28T00:42:49;5.60;99.90
19586;DHT22;9939;49.246;9.106;2024-02-28T00:45:16;5.70;99.90
19586;DHT22;9939;49.246;9.106;2024-02-28T00:47:44;5.80;99.90
19586;DHT22;9939;49.246;9.106;2024-02-28T00:50:11;5.80;99.90
19586;DHT22;9939;49.246;9.106;2024-02-28T00:52:38;5.80;99.90
19586;DHT22;9939;49.246;9.106;2024-02-28T00:55:05;5.80;99.90
19586;DHT22;9939;49.246;9.106;2024-02-28T00:57:32;5.90;99.90
19586;DHT22;9939;49.246;9.106;2024-02-28T00:59:59;6.00;99.90
19586;DHT22;9939;49.246;9.106;2024-02-28T01:02:26;6.00;99.90
19586;DHT22;9939;49.246;9.106;2024-02-28T01:04:53;6.00;99.90
19586;DHT22;9939;49.246;9.106;2024-02-28T01:07:20;6.00;99.90
19586;DHT22;9939;49.246;9.106;2024-02-28T01:09:47;6.00;99.90
19586;DHT22;9939;49.246;9.106;2024-02-28T01:12:14;6.00;99.90
19586;DHT22;9939;49.246;9.106;2024-02-28T01:14:41;5.90;99.90
19586;DHT22;9939;49.246;9.106;2024-02-28T01:17:08;5.90;99.90
19586;DHT22;9939;49.246;9.106;2024-02-28T01:19:34;6.00;99.90
19586;DHT22;9939;49.246;9.106;2024-02-28T01:22:01;6.00;99.90
19586;DHT22;9939;49.246;9.106;2024-02-28T01:24:29;6.00;99.90
19586;DHT22;9939;49.246;9.106;2024-02-28T01:26:56;6.00;99.90
19586;DHT22;9939;49.246;9.106;2024-02-28T01:29:23;5.80;99.90
19586;DHT22;9939;49.246;9.106;2024-02-28T01:31:50;6.00;99.90
19586;DHT22;9939;49.246;9.106;2024-02-28T01:34:17;5.80;99.90
19586;DHT22;9939;49.246;9.106;2024-02-28T01:36:45;5.70;99.90
19586;DHT22;9939;49.246;9.106;2024-02-28T01:39:12;5.60;99.90
19586;DHT22;9939;49.246;9.106;2024-02-28T01:41:39;5.40;99.90
19586;DHT22;9939;49.246;9.106;2024-02-28T01:44:06;5.30;99.90
19586;DHT22;9939;49.246;9.106;2024-02-28T01:46:33;5.40;99.90
19586;DHT22;9939;49.246;9.106;2024-02-28T01:49:00;5.30;99.90
19586;DHT22;9939;49.246;9.106;2024-02-28T01:51:27;5.30;99.90
19586;DHT22;9939;49.246;9.106;2024-02-28T01:53:55;5.00;99.90
19586;DHT22;9939;49.246;9.106;2024-02-28T01:56:23;4.90;99.90
19586;DHT22;9939;49.246;9.106;2024-02-28T01:58:52;5.00;99.90
19586;DHT22;9939;49.246;9.106;2024-02-28T02:01:20;4.80;99.90
19586;DHT22;9939;49.246;9.106;2024-02-28T02:03:51;4.90;99.90
19586;DHT22;9939;49.246;9.106;2024-02-28T02:06:18;4.80;99.90
19586;DHT22;9939;49.246;9.106;2024-02-28T02:08:46;4.60;99.90
19586;DHT22;9939;49.246;9.106;2024-02-28T02:11:14;4.70;99.90
19586;DHT22;9939;49.246;9.106;2024-02-28T02:13:52;4.50;99.90
19586;DHT22;9939;49.246;9.106;2024-02-28T02:16:19;4.50;99.90
19586;DHT22;9939;49.246;9.106;2024-02-28T02:18:49;4.50;99.90
19586;DHT22;9939;49.246;9.106;2024-02-28T02:21:18;4.40;99.90
19586;DHT22;9939;49.246;9.106;2024-02-28T02:23:47;4.50;99.90
19586;DHT22;9939;49.246;9.106;2024-02-28T02:26:14;4.40;99.90
19586;DHT22;9939;49.246;9.106;2024-02-28T02:28:40;4.50;99.90
19586;DHT22;9939;49.246;9.106;2024-02-28T02:31:08;4.50;99.90
19586;DHT22;9939;49.246;9.106;2024-02-28T02:33:35;4.50;99.90
19586;DHT22;9939;49.246;9.106;2024-02-28T02:36:02;4.40;99.90
19586;DHT22;9939;49.246;9.106;2024-02-28T02:38:29;4.40;99.90
19586;DHT22;9939;49.246;9.106;2024-02-28T02:40:56;4.30;99.90
19586;DHT22;9939;49.246;9.106;2024-02-28T02:43:23;4.30;99.90
19586;DHT22;9939;49.246;9.106;2024-02-28T02:45:50;4.20;99.90
19586;DHT22;9939;49.246;9.106;2024-02-28T02:48:17;4.20;99.90
19586;DHT22;9939;49.246;9.106;2024-02-28T02:50:44;4.10;99.90
19586;DHT22;9939;49.246;9.106;2024-02-28T02:53:11;4.10;99.90
19586;DHT22;9939;49.246;9.106;2024-02-28T02:55:38;3.90;99.90
19586;DHT22;9939;49.246;9.106;2024-02-28T02:58:05;3.90;99.90
19586;DHT22;9939;49.246;9.106;2024-02-28T03:00:32;3.80;99.90
19586;DHT22;9939;49.246;9.106;2024-02-28T03:02:59;3.90;99.90
19586;DHT22;9939;49.246;9.106;2024-02-28T03:05:26;3.90;99.90
19586;DHT22;9939;49.246;9.106;2024-02-28T03:07:53;3.80;99.90
19586;DHT22;9939;49.246;9.106;2024-02-28T03:10:20;3.70;99.90
19586;DHT22;9939;49.246;9.106;2024-02-28T03:12:47;3.70;99.90
19586;DHT22;9939;49.246;9.106;2024-02-28T03:15:14;3.70;99.90
19586;DHT22;9939;49.246;9.106;2024-02-28T03:17:41;3.70;99.90
19586;DHT22;9939;49.246;9.106;2024-02-28T03:20:09;3.80;99.90
19586;DHT22;9939;49.246;9.106;2024-02-28T03:22:36;3.80;99.90
19586;DHT22;9939;49.246;9.106;2024-02-28T03:25:03;3.90;99.90
19586;DHT22;9939;49.246;9.106;2024-02-28T03:27:31;3.90;99.90
19586;DHT22;9939;49.246;9.106;2024-02-28T03:29:58;3.90;99.90
19586;DHT22;9939;49.246;9.106;2024-02-28T03:32:25;3.90;99.90
19586;DHT22;9939;49.246;9.106;2024-02-28T03:34:52;3.80;99.90
19586;DHT22;9939;49.246;9.106;2024-02-28T03:37:19;3.60;99.90
19586;DHT22;9939;49.246;9.106;2024-02-28T03:39:46;3.70;99.90
19586;DHT22;9939;49.246;9.106;2024-02-28T03:42:13;3.70;99.90
19586;DHT22;9939;49.246;9.106;2024-02-28T03:44:40;3.60;99.90
19586;DHT22;9939;49.246;9.106;2024-02-28T03:47:07;3.70;99.90
19586;DHT22;9939;49.246;9.106;2024-02-28T03:49:34;3.60;99.90
19586;DHT22;9939;49.246;9.106;2024-02-28T03:52:01;3.60;99.90
19586;DHT22;9939;49.246;9.106;2024-02-28T03:54:28;3.70;99.90
19586;DHT22;9939;49.246;9.106;2024-02-28T03:56:55;3.60;99.90
19586;DHT22;9939;49.246;9.106;2024-02-28T03:59:22;3.60;99.90
19586;DHT22;9939;49.246;9.106;2024-02-28T04:01:49;3.50;99.90
19586;DHT22;9939;49.246;9.106;2024-02-28T04:04:16;3.50;99.90
19586;DHT22;9939;49.246;9.106;2024-02-28T04:06:43;3.50;99.90
19586;DHT22;9939;49.246;9.106;2024-02-28T04:09:10;3.50;99.90
19586;DHT22;9939;49.246;9.106;2024-02-28T04:11:37;3.40;99.90
19586;DHT22;9939;49.246;9.106;2024-02-28T04:14:05;3.40;99.90
19586;DHT22;9939;49.246;9.106;2024-02-28T04:16:31;3.40;99.90
19586;DHT22;9939;49.246;9.106;2024-02-28T04:18:58;3.30;99.90
19586;DHT22;9939;49.246;9.106;2024-02-28T04:21:25;3.30;99.90
19586;DHT22;9939;49.246;9.106;2024-02-28T04:23:52;3.30;99.90
19586;DHT22;9939;49.246;9.106;2024-02-28T04:26:19;3.30;99.90
19586;DHT22;9939;49.246;9.106;2024-02-28T04:28:46;3.20;99.90
19586;DHT22;9939;49.246;9.106;2024-02-28T04:31:13;3.10;99.90
19586;DHT22;9939;49.246;9.106;2024-02-28T04:33:40;3.20;99.90
19586;DHT22;9939;49.246;9.106;2024-02-28T04:36:07;3.20;99.90
19586;DHT22;9939;49.246;9.106;2024-02-28T04:38:34;3.20;99.90
19586;DHT22;9939;49.246;9.106;2024-02-28T04:41:01;3.30;99.90
19586;DHT22;9939;49.246;9.106;2024-02-28T04:43:28;3.40;99.90
19586;DHT22;9939;49.246;9.106;2024-02-28T04:45:55;3.40;99.90
19586;DHT22;9939;49.246;9.106;2024-02-28T04:48:23;3.50;99.90
19586;DHT22;9939;49.246;9.106;2024-02-28T04:50:51;3.60;99.90
19586;DHT22;9939;49.246;9.106;2024-02-28T04:53:18;3.80;99.90
19586;DHT22;9939;49.246;9.106;2024-02-28T04:55:45;3.90;99.90
19586;DHT22;9939;49.246;9.106;2024-02-28T04:58:11;4.20;99.90
19586;DHT22;9939;49.246;9.106;2024-02-28T05:00:38;4.20;99.90
19586;DHT22;9939;49.246;9.106;2024-02-28T05:03:06;4.30;99.90
19586;DHT22;9939;49.246;9.106;2024-02-28T05:05:33;4.50;99.90
19586;DHT22;9939;49.246;9.106;2024-02-28T05:08:00;4.50;99.90
19586;DHT22;9939;49.246;9.106;2024-02-28T05:10:27;4.70;99.90
19586;DHT22;9939;49.246;9.106;2024-02-28T05:12:54;4.80;99.90
19586;DHT22;9939;49.246;9.106;2024-02-28T05:15:21;4.80;99.90
19586;DHT22;9939;49.246;9.106;2024-02-28T05:17:50;4.90;99.90
19586;DHT22;9939;49.246;9.106;2024-02-28T05:20:18;5.10;99.90
19586;DHT22;9939;49.246;9.106;2024-02-28T05:22:45;5.10;99.90
19586;DHT22;9939;49.246;9.106;2024-02-28T05:25:12;5.10;99.90
19586;DHT22;9939;49.246;9.106;2024-02-28T05:27:39;5.20;99.90
19586;DHT22;9939;49.246;9.106;2024-02-28T05:30:06;5.20;99.90
19586;DHT22;9939;49.246;9.106;2024-02-28T05:32:33;5.10;99.90
19586;DHT22;9939;49.246;9.106;2024-02-28T05:35:01;5.20;99.90
19586;DHT22;9939;49.246;9.106;2024-02-28T05:37:28;5.20;99.90
19586;DHT22;9939;49.246;9.106;2024-02-28T05:39:54;5.30;99.90
19586;DHT22;9939;49.246;9.106;2024-02-28T05:42:21;5.30;99.90
19586;DHT22;9939;49.246;9.106;2024-02-28T05:44:49;5.40;99.90
19586;DHT22;9939;49.246;9.106;2024-02-28T05:47:16;5.40;99.90
19586;DHT22;9939;49.246;9.106;2024-02-28T05:49:43;5.40;99.90
19586;DHT22;9939;49.246;9.106;2024-02-28T05:52:10;5.40;99.90
19586;DHT22;9939;49.246;9.106;2024-02-28T05:54:37;5.40;99.90
19586;DHT22;9939;49.246;9.106;2024-02-28T05:57:04;5.40;99.90
19586;DHT22;9939;49.246;9.106;2024-02-28T05:59:31;5.40;99.90
19586;DHT22;9939;49.246;9.106;2024-02-28T06:01:58;5.40;99.90
19586;DHT22;9939;49.246;9.106;2024-02-28T06:04:25;5.40;99.90
19586;DHT22;9939;49.246;9.106;2024-02-28T06:06:52;5.40;99.90
19586;DHT22;9939;49.246;9.106;2024-02-28T06:09:19;5.40;99.90
19586;DHT22;9939;49.246;9.106;2024-02-28T06:11:46;5.40;99.90
19586;DHT22;9939;49.246;9.106;2024-02-28T06:14:13;5.40;99.90
19586;DHT22;9939;49.246;9.106;2024-02-28T06:16:40;5.50;99.90
19586;DHT22;9939;49.246;9.106;2024-02-28T06:19:07;5.60;99.90
19586;DHT22;9939;49.246;9.106;2024-02-28T06:21:34;5.30;99.90
19586;DHT22;9939;49.246;9.106;2024-02-28T06:24:01;5.20;99.90
19586;DHT22;9939;49.246;9.106;2024-02-28T06:26:28;5.10;99.90
19586;DHT22;9939;49.246;9.106;2024-02-28T06:28:55;5.10;99.90
19586;DHT22;9939;49.246;9.106;2024-02-28T06:31:28;5.10;99.90
19586;DHT22;9939;49.246;9.106;2024-02-28T06:33:58;5.30;99.90
19586;DHT22;9939;49.246;9.106;2024-02-28T06:36:25;5.40;99.90
19586;DHT22;9939;49.246;9.106;2024-02-28T06:38:52;5.40;99.90
19586;DHT22;9939;49.246;9.106;2024-02-28T06:41:19;5.30;99.90
19586;DHT22;9939;49.246;9.106;2024-02-28T06:43:46;5.30;99.90
19586;DHT22;9939;49.246;9.106;2024-02-28T06:46:13;5.30;99.90
19586;DHT22;9939;49.246;9.106;2024-02-28T06:48:40;5.30;99.90
19586;DHT22;9939;49.246;9.106;2024-02-28T06:51:07;5.50;99.90
19586;DHT22;9939;49.246;9.106;2024-02-28T06:53:34;5.50;99.90
19586;DHT22;9939;49.246;9.106;2024-02-28T06:56:02;5.60;99.90
19586;DHT22;9939;49.246;9.106;2024-02-28T06:58:30;5.70;99.90
19586;DHT22;9939;49.246;9.106;2024-02-28T07:00:57;5.80;99.90
19586;DHT22;9939;49.246;9.106;2024-02-28T07:03:27;5.80;99.90
19586;DHT22;9939;49.246;9.106;2024-02-28T07:05:54;6.00;99.90
19586;DHT22;9939;49.246;9.106;2024-02-28T07:08:21;6.20;99.90
19586;DHT22;9939;49.246;9.106;2024-02-28T07:10:48;6.00;99.90
19586;DHT22;9939;49.246;9.106;2024-02-28T07:13:20;6.00;99.90
19586;DHT22;9939;49.246;9.106;2024-02-28T07:15:47;6.10;99.90
19586;DHT22;9939;49.246;9.106;2024-02-28T07:18:16;6.10;99.90
19586;DHT22;9939;49.246;9.106;2024-02-28T07:20:43;6.20;99.90
19586;DHT22;9939;49.246;9.106;2024-02-28T07:23:10;6.20;99.90
19586;DHT22;9939;49.246;9.106;2024-02-28T07:25:36;6.30;99.90
19586;DHT22;9939;49.246;9.106;2024-02-28T07:28:04;6.20;99.90
19586;DHT22;9939;49.246;9.106;2024-02-28T07:30:31;6.30;99.90
19586;DHT22;9939;49.246;9.106;2024-02-28T07:32:58;6.30;99.90
19586;DHT22;9939;49.246;9.106;2024-02-28T07:35:25;6.40;99.90
19586;DHT22;9939;49.246;9.106;2024-02-28T07:37:52;6.50;99.90
19586;DHT22;9939;49.246;9.106;2024-02-28T07:40:19;6.50;99.90
19586;DHT22;9939;49.246;9.106;2024-02-28T07:42:46;6.70;99.90
19586;DHT22;9939;49.246;9.106;2024-02-28T07:45:13;6.50;99.90
19586;DHT22;9939;49.246;9.106;2024-02-28T07:47:40;6.60;99.90
19586;DHT22;9939;49.246;9.106;2024-02-28T07:50:07;6.50;99.90
19586;DHT22;9939;49.246;9.106;2024-02-28T07:52:34;6.60;99.90
19586;DHT22;9939;49.246;9.106;2024-02-28T07:55:02;6.60;99.90
19586;DHT22;9939;49.246;9.106;2024-02-28T07:57:31;6.60;99.90
19586;DHT22;9939;49.246;9.106;2024-02-28T07:59:58;6.70;99.90
19586;DHT22;9939;49.246;9.106;2024-02-28T08:02:25;6.80;99.90
19586;DHT22;9939;49.246;9.106;2024-02-28T08:04:52;6.90;99.90
19586;DHT22;9939;49.246;9.106;2024-02-28T08:07:19;7.00;99.90
19586;DHT22;9939;49.246;9.106;2024-02-28T08:09:46;7.00;99.90
19586;DHT22;9939;49.246;9.106;2024-02-28T08:12:13;7.30;99.90
19586;DHT22;9939;49.246;9.106;2024-02-28T08:14:40;7.20;99.90
19586;DHT22;9939;49.246;9.106;2024-02-28T08:17:07;7.30;99.90
19586;DHT22;9939;49.246;9.106;2024-02-28T08:19:34;7.30;99.90
19586;DHT22;9939;49.246;9.106;2024-02-28T08:22:02;7.20;99.90
19586;DHT22;9939;49.246;9.106;2024-02-28T08:24:29;7.30;99.90
19586;DHT22;9939;49.246;9.106;2024-02-28T08:26:56;7.50;99.90
19586;DHT22;9939;49.246;9.106;2024-02-28T08:29:23;7.40;99.90
19586;DHT22;9939;49.246;9.106;2024-02-28T08:31:51;7.30;99.90
19586;DHT22;9939;49.246;9.106;2024-02-28T08:34:18;7.30;99.90
19586;DHT22;9939;49.246;9.106;2024-02-28T08:36:45;7.40;99.90
19586;DHT22;9939;49.246;9.106;2024-02-28T08:39:12;7.30;99.90
19586;DHT22;9939;49.246;9.106;2024-02-28T08:41:39;7.20;99.90
19586;DHT22;9939;49.246;9.106;2024-02-28T08:44:06;7.20;99.90
19586;DHT22;9939;49.246;9.106;2024-02-28T08:46:33;7.30;99.90
19586;DHT22;9939;49.246;9.106;2024-02-28T08:49:00;7.30;99.90
19586;DHT22;9939;49.246;9.106;2024-02-28T08:51:27;7.50;99.90
19586;DHT22;9939;49.246;9.106;2024-02-28T08:53:54;7.60;99.90
19586;DHT22;9939;49.246;9.106;2024-02-28T08:56:22;7.70;99.90
19586;DHT22;9939;49.246;9.106;2024-02-28T08:58:49;8.00;99.90
19586;DHT22;9939;49.246;9.106;2024-02-28T09:01:16;7.80;99.90
19586;DHT22;9939;49.246;9.106;2024-02-28T09:03:44;7.80;99.90
19586;DHT22;9939;49.246;9.106;2024-02-28T09:06:11;8.00;99.90
19586;DHT22;9939;49.246;9.106;2024-02-28T09:08:39;8.00;99.90
19586;DHT22;9939;49.246;9.106;2024-02-28T09:11:06;8.00;99.90
19586;DHT22;9939;49.246;9.106;2024-02-28T09:13:34;8.10;99.90
19586;DHT22;9939;49.246;9.106;2024-02-28T09:16:02;8.30;99.90
19586;DHT22;9939;49.246;9.106;2024-02-28T09:18:29;8.40;99.90
19586;DHT22;9939;49.246;9.106;2024-02-28T09:20:56;8.50;99.90
19586;DHT22;9939;49.246;9.106;2024-02-28T09:23:23;8.70;99.90
19586;DHT22;9939;49.246;9.106;2024-02-28T09:25:50;8.80;99.90
19586;DHT22;9939;49.246;9.106;2024-02-28T09:28:17;8.80;99.90
19586;DHT22;9939;49.246;9.106;2024-02-28T09:30:44;8.80;99.90
19586;DHT22;9939;49.246;9.106;2024-02-28T09:33:19;8.90;99.90
19586;DHT22;9939;49.246;9.106;2024-02-28T09:35:47;9.00;99.90
19586;DHT22;9939;49.246;9.106;2024-02-28T09:38:14;9.20;99.90
19586;DHT22;9939;49.246;9.106;2024-02-28T09:40:41;9.30;99.90
19586;DHT22;9939;49.246;9.106;2024-02-28T09:43:19;9.10;99.90
19586;DHT22;9939;49.246;9.106;2024-02-28T09:45:50;9.80;99.90
19586;DHT22;9939;49.246;9.106;2024-02-28T09:48:18;10.20;99.90
19586;DHT22;9939;49.246;9.106;2024-02-28T09:50:46;11.20;99.90
19586;DHT22;9939;49.246;9.106;2024-02-28T09:53:13;11.50;99.90
19586;DHT22;9939;49.246;9.106;2024-02-28T09:55:40;12.30;99.90
19586;DHT22;9939;49.246;9.106;2024-02-28T09:58:08;13.20;99.90
19586;DHT22;9939;49.246;9.106;2024-02-28T10:00:35;12.60;99.90
19586;DHT22;9939;49.246;9.106;2024-02-28T10:03:03;11.20;99.90
19586;DHT22;9939;49.246;9.106;2024-02-28T10:05:33;11.30;99.90
19586;DHT22;9939;49.246;9.106;2024-02-28T10:08:01;11.70;99.90
19586;DHT22;9939;49.246;9.106;2024-02-28T10:10:28;11.70;99.90
19586;DHT22;9939;49.246;9.106;2024-02-28T10:12:56;11.80;99.90
19586;DHT22;9939;49.246;9.106;2024-02-28T10:15:26;11.40;99.90
19586;DHT22;9939;49.246;9.106;2024-02-28T10:17:53;11.30;99.90
19586;DHT22;9939;49.246;9.106;2024-02-28T10:20:20;11.10;99.90
19586;DHT22;9939;49.246;9.106;2024-02-28T10:22:46;10.80;99.90
19586;DHT22;9939;49.246;9.106;2024-02-28T10:25:13;10.50;99.90
19586;DHT22;9939;49.246;9.106;2024-02-28T10:27:40;10.30;99.90
19586;DHT22;9939;49.246;9.106;2024-02-28T10:30:08;10.40;99.90
19586;DHT22;9939;49.246;9.106;2024-02-28T10:32:35;10.40;99.90
19586;DHT22;9939;49.246;9.106;2024-02-28T10:35:04;11.00;99.90
19586;DHT22;9939;49.246;9.106;2024-02-28T10:37:37;11.30;99.90
19586;DHT22;9939;49.246;9.106;2024-02-28T10:40:06;11.00;99.90
19586;DHT22;9939;49.246;9.106;2024-02-28T10:42:33;10.60;99.90
19586;DHT22;9939;49.246;9.106;2024-02-28T10:45:02;11.10;99.90
19586;DHT22;9939;49.246;9.106;2024-02-28T10:47:50;11.90;99.90
19586;DHT22;9939;49.246;9.106;2024-02-28T10:50:17;11.70;99.90
19586;DHT22;9939;49.246;9.106;2024-02-28T10:52:45;12.10;99.90
19586;DHT22;9939;49.246;9.106;2024-02-28T10:55:14;12.70;99.90
19586;DHT22;9939;49.246;9.106;2024-02-28T10:57:42;13.20;99.90
19586;DHT22;9939;49.246;9.106;2024-02-28T11:00:13;13.70;99.90
19586;DHT22;9939;49.246;9.106;2024-02-28T11:02:40;13.80;99.90
19586;DHT22;9939;49.246;9.106;2024-02-28T11:05:10;15.80;99.90
19586;DHT22;9939;49.246;9.106;2024-02-28T11:07:40;16.80;99.90
19586;DHT22;9939;49.246;9.106;2024-02-28T11:10:07;17.00;99.90
19586;DHT22;9939;49.246;9.106;2024-02-28T11:12:34;18.70;99.90
19586;DHT22;9939;49.246;9.106;2024-02-28T11:15:02;18.40;99.90
19586;DHT22;9939;49.246;9.106;2024-02-28T11:17:32;19.60;99.90
19586;DHT22;9939;49.246;9.106;2024-02-28T11:19:59;19.10;99.90
19586;DHT22;9939;49.246;9.106;2024-02-28T11:22:29;18.90;99.90
19586;DHT22;9939;49.246;9.106;2024-02-28T11:24:56;20.90;99.90
19586;DHT22;9939;49.246;9.106;2024-02-28T11:27:23;21.40;99.90
19586;DHT22;9939;49.246;9.106;2024-02-28T11:29:50;20.60;99.90
19586;DHT22;9939;49.246;9.106;2024-02-28T11:32:17;21.80;99.90
19586;DHT22;9939;49.246;9.106;2024-02-28T11:34:44;22.00;99.90
19586;DHT22;9939;49.246;9.106;2024-02-28T11:37:12;23.40;99.90
19586;DHT22;9939;49.246;9.106;2024-02-28T11:39:39;23.70;99.10
19586;DHT22;9939;49.246;9.106;2024-02-28T11:42:10;22.60;99.90
19586;DHT22;9939;49.246;9.106;2024-02-28T11:44:37;22.20;99.90
19586;DHT22;9939;49.246;9.106;2024-02-28T11:47:03;19.40;99.90
19586;DHT22;9939;49.246;9.106;2024-02-28T11:49:32;20.00;99.90
19586;DHT22;9939;49.246;9.106;2024-02-28T11:51:59;22.40;99.90
19586;DHT22;9939;49.246;9.106;2024-02-28T11:54:26;24.20;99.20
19586;DHT22;9939;49.246;9.106;2024-02-28T11:56:53;24.80;97.70
19586;DHT22;9939;49.246;9.106;2024-02-28T11:59:23;23.70;96.80
19586;DHT22;9939;49.246;9.106;2024-02-28T12:01:50;21.20;98.80
19586;DHT22;9939;49.246;9.106;2024-02-28T12:04:19;19.60;99.90
19586;DHT22;9939;49.246;9.106;2024-02-28T12:06:46;18.20;99.90
19586;DHT22;9939;49.246;9.106;2024-02-28T12:09:14;17.30;99.90
19586;DHT22;9939;49.246;9.106;2024-02-28T12:11:54;16.60;99.90
19586;DHT22;9939;49.246;9.106;2024-02-28T12:14:21;16.80;99.90
19586;DHT22;9939;49.246;9.106;2024-02-28T12:16:48;18.00;99.90
19586;DHT22;9939;49.246;9.106;2024-02-28T12:19:15;19.80;99.90
19586;DHT22;9939;49.246;9.106;2024-02-28T12:21:46;21.10;99.90
19586;DHT22;9939;49.246;9.106;2024-02-28T12:24:13;20.70;99.90
19586;DHT22;9939;49.246;9.106;2024-02-28T12:26:40;20.90;99.90
19586;DHT22;9939;49.246;9.106;2024-02-28T12:29:07;19.30;99.90
19586;DHT22;9939;49.246;9.106;2024-02-28T12:31:38;18.10;99.90
19586;DHT22;9939;49.246;9.106;2024-02-28T12:34:05;18.80;99.90
19586;DHT22;9939;49.246;9.106;2024-02-28T12:36:32;19.90;99.90
19586;DHT22;9939;49.246;9.106;2024-02-28T12:39:00;18.70;99.90
19586;DHT22;9939;49.246;9.106;2024-02-28T12:41:27;19.50;99.90
19586;DHT22;9939;49.246;9.106;2024-02-28T12:43:54;19.00;99.90
19586;DHT22;9939;49.246;9.106;2024-02-28T12:46:21;19.60;99.90
19586;DHT22;9939;49.246;9.106;2024-02-28T12:48:48;19.30;99.90
19586;DHT22;9939;49.246;9.106;2024-02-28T12:54:03;19.60;99.90
19586;DHT22;9939;49.246;9.106;2024-02-28T12:56:30;19.80;99.90
19586;DHT22;9939;49.246;9.106;2024-02-28T12:58:57;19.60;98.90
19586;DHT22;9939;49.246;9.106;2024-02-28T13:01:24;17.80;99.90
19586;DHT22;9939;49.246;9.106;2024-02-28T13:03:51;18.50;99.90
19586;DHT22;9939;49.246;9.106;2024-02-28T13:06:19;20.00;99.60
19586;DHT22;9939;49.246;9.106;2024-02-28T13:08:46;18.90;99.90
19586;DHT22;9939;49.246;9.106;2024-02-28T13:11:19;18.90;99.90
19586;DHT22;9939;49.246;9.106;2024-02-28T13:13:50;18.20;99.90
19586;DHT22;9939;49.246;9.106;2024-02-28T13:16:20;19.50;99.90
19586;DHT22;9939;49.246;9.106;2024-02-28T13:18:48;20.10;99.90
19586;DHT22;9939;49.246;9.106;2024-02-28T13:21:15;22.40;98.10
19586;DHT22;9939;49.246;9.106;2024-02-28T13:23:42;21.60;97.80
19586;DHT22;9939;49.246;9.106;2024-02-28T13:26:09;20.00;99.30
19586;DHT22;9939;49.246;9.106;2024-02-28T13:28:44;21.50;98.40
19586;DHT22;9939;49.246;9.106;2024-02-28T13:31:16;22.40;96.80
19586;DHT22;9939;49.246;9.106;2024-02-28T13:33:43;22.00;97.10
19586;DHT22;9939;49.246;9.106;2024-02-28T13:36:10;22.50;96.10
19586;DHT22;9939;49.246;9.106;2024-02-28T13:38:37;22.30;96.20
19586;DHT22;9939;49.246;9.106;2024-02-28T13:41:04;23.30;94.80
19586;DHT22;9939;49.246;9.106;2024-02-28T13:43:32;23.70;94.40
19586;DHT22;9939;49.246;9.106;2024-02-28T13:46:00;23.30;94.50
19586;DHT22;9939;49.246;9.106;2024-02-28T13:48:28;22.60;93.80
19586;DHT22;9939;49.246;9.106;2024-02-28T13:51:00;23.20;93.30
19586;DHT22;9939;49.246;9.106;2024-02-28T13:53:28;22.30;93.80
19586;DHT22;9939;49.246;9.106;2024-02-28T13:55:55;24.00;92.70
19586;DHT22;9939;49.246;9.106;2024-02-28T13:58:22;24.40;92.00
19586;DHT22;9939;49.246;9.106;2024-02-28T14:00:50;24.50;93.00
19586;DHT22;9939;49.246;9.106;2024-02-28T14:03:17;24.20;92.60
19586;DHT22;9939;49.246;9.106;2024-02-28T14:05:45;24.40;92.40
19586;DHT22;9939;49.246;9.106;2024-02-28T14:08:11;24.80;91.40
19586;DHT22;9939;49.246;9.106;2024-02-28T14:10:40;24.50;91.80
19586;DHT22;9939;49.246;9.106;2024-02-28T14:13:07;23.40;92.10
19586;DHT22;9939;49.246;9.106;2024-02-28T14:15:34;22.90;92.40
19586;DHT22;9939;49.246;9.106;2024-02-28T14:18:03;22.70;93.30
19586;DHT22;9939;49.246;9.106;2024-02-28T14:20:30;22.00;93.20
19586;DHT22;9939;49.246;9.106;2024-02-28T14:22:57;20.80;94.70
19586;DHT22;9939;49.246;9.106;2024-02-28T14:25:25;21.70;93.90
19586;DHT22;9939;49.246;9.106;2024-02-28T14:27:52;22.20;93.60
19586;DHT22;9939;49.246;9.106;2024-02-28T14:30:20;23.80;92.10
19586;DHT22;9939;49.246;9.106;2024-02-28T14:32:47;24.20;91.10
19586;DHT22;9939;49.246;9.106;2024-02-28T14:35:16;21.30;93.60
19586;DHT22;9939;49.246;9.106;2024-02-28T14:37:43;21.00;94.60
19586;DHT22;9939;49.246;9.106;2024-02-28T14:40:11;20.60;95.00
19586;DHT22;9939;49.246;9.106;2024-02-28T14:42:42;20.00;94.70
19586;DHT22;9939;49.246;9.106;2024-02-28T14:45:12;19.80;95.10
19586;DHT22;9939;49.246;9.106;2024-02-28T14:47:42;21.70;93.60
19586;DHT22;9939;49.246;9.106;2024-02-28T14:50:09;22.30;93.00
19586;DHT22;9939;49.246;9.106;2024-02-28T14:52:37;21.20;93.70
19586;DHT22;9939;49.246;9.106;2024-02-28T14:55:06;21.20;93.80
19586;DHT22;9939;49.246;9.106;2024-02-28T14:57:33;19.70;94.60
19586;DHT22;9939;49.246;9.106;2024-02-28T15:00:01;19.00;95.80
19586;DHT22;9939;49.246;9.106;2024-02-28T15:02:35;18.30;96.00
19586;DHT22;9939;49.246;9.106;2024-02-28T15:05:02;17.60;96.70
19586;DHT22;9939;49.246;9.106;2024-02-28T15:07:33;17.00;98.10
19586;DHT22;9939;49.246;9.106;2024-02-28T15:10:02;15.50;99.90
19586;DHT22;9939;49.246;9.106;2024-02-28T15:12:31;14.30;99.90
19586;DHT22;9939;49.246;9.106;2024-02-28T15:15:00;13.60;99.90
19586;DHT22;9939;49.246;9.106;2024-02-28T15:17:29;13.60;99.90
19586;DHT22;9939;49.246;9.106;2024-02-28T15:19:56;14.00;99.90
19586;DHT22;9939;49.246;9.106;2024-02-28T15:22:23;13.80;99.90
19586;DHT22;9939;49.246;9.106;2024-02-28T15:24:50;12.80;99.90
19586;DHT22;9939;49.246;9.106;2024-02-28T15:27:18;13.20;99.90
19586;DHT22;9939;49.246;9.106;2024-02-28T15:29:45;13.20;99.90
19586;DHT22;9939;49.246;9.106;2024-02-28T15:32:12;13.40;99.90
19586;DHT22;9939;49.246;9.106;2024-02-28T15:34:39;12.90;99.90
19586;DHT22;9939;49.246;9.106;2024-02-28T15:37:07;12.70;99.90
19586;DHT22;9939;49.246;9.106;2024-02-28T15:39:36;12.80;99.90
19586;DHT22;9939;49.246;9.106;2024-02-28T15:42:03;12.60;99.90
19586;DHT22;9939;49.246;9.106;2024-02-28T15:44:30;12.30;99.90
19586;DHT22;9939;49.246;9.106;2024-02-28T15:46:57;11.90;99.90
19586;DHT22;9939;49.246;9.106;2024-02-28T15:49:24;12.10;99.90
19586;DHT22;9939;49.246;9.106;2024-02-28T15:52:08;12.10;99.90
19586;DHT22;9939;49.246;9.106;2024-02-28T15:54:37;11.90;99.90
19586;DHT22;9939;49.246;9.106;2024-02-28T15:57:07;11.90;99.90
19586;DHT22;9939;49.246;9.106;2024-02-28T15:59:36;11.90;99.90